Flight Track Log - Related Links

Times and Time Zones

All times are in EDT time to prevent confusion due to time zone crossing. See the DAL1903 flight status page for this flight to view local times or setup timezone preferences in your user account.

Time Position Orientation Groundspeed Altitude Reporting Facility
EDT Latitude Longitude Course Direction KTS MPH feet Rate Location/Type
11:18AM 40.7500 -73.8167 270° West 181 208 1,800  Level New York TRACON
11:19AM 40.7833 -73.7500 57° Northeast 250 288 4,700 3,176 Climbing New York TRACON
11:20AM 40.6330 -74.2788 244° Southwest  Level FlightAware Approximate
11:20AM 40.8500 -73.7833 339° North 253 291 8,100  Level New York TRACON
11:21AM 40.5834 -74.4167 246° West  Level FlightAware Approximate
11:21AM 40.9000 -73.8500 315° West 286 329 11,400  Level New York TRACON
11:22AM 40.5368 -74.5563 246° West  Level FlightAware Approximate
11:22AM 40.9000 -73.9667 270° West 333 383 13,000  Level New York TRACON
11:23AM 40.5000 -74.6970 270° West  Level FlightAware Approximate
11:23AM 40.8500 -74.1000 244° Southwest 394 453 14,900  Level New York TRACON
11:24AM 40.7833 -74.2167 233° Southwest 406 467 15,100 474 Climbing New York TRACON
11:25AM 40.7333 -74.3333 241° Southwest 416 479 15,800 1,348 Climbing New York TRACON
11:27AM 40.5994 -74.6003 237° Southwest 421 484 19,300 1,914 Climbing New York Center
11:28AM 40.5367 -74.7361 239° Southwest 426 490 21,700 2,288 Climbing New York Center
11:29AM 40.4717 -74.8686 237° Southwest 431 496 23,800 2,500 Climbing New York Center
11:30AM 40.4025 -75.0008 236° Southwest 438 504 26,700 2,231 Climbing New York Center
11:31AM 40.3211 -75.1156 227° Southwest 438 504 28,300 1,884 Climbing New York Center
11:32AM 40.2375 -75.2328 227° Southwest 443 510 30,500 2,132 Climbing New York Center
11:33AM 40.1669 -75.3342 228° Southwest 443 510 32,600 1,636 Climbing New York Center
11:34AM 40.0878 -75.4403 226° Southwest 423 487 33,800 712 Climbing New York Center
11:35AM 40.0106 -75.5489 227° Southwest 418 481 34,000 101 Climbing New York Center
11:36AM 39.9331 -75.6547 226° Southwest 418 481 34,000  Level New York Center
11:37AM 39.8639 -75.7661 231° Southwest 412 474 34,000 -50 Level New York Center
11:38AM 39.7900 -75.8825 230° Southwest 412 474 33,900  Descending New York Center
11:39AM 39.7206 -75.9961 232° Southwest 412 474 34,000 50 Climbing New York Center
11:40AM 39.6508 -76.1069 231° Southwest 407 468 34,000  Level New York Center
11:41AM 39.5725 -76.2214 228° Southwest 410 472 34,000  Level Washington Center
11:42AM 39.5031 -76.3339 231° Southwest 405 466 34,000  Level Washington Center
11:43AM 39.4294 -76.4433 229° Southwest 405 466 34,000  Level Washington Center
11:44AM 39.3619 -76.5417 228° Southwest 405 466 34,000  Level Washington Center
11:45AM 39.2900 -76.6561 231° Southwest 410 472 34,000  Level Washington Center
11:46AM 39.2203 -76.7678 231° Southwest 410 472 34,000  Level Washington Center
11:47AM 39.1483 -76.8789 230° Southwest 410 472 34,000  Level Washington Center
11:48AM 39.0783 -76.9872 230° Southwest 405 466 34,000  Level Washington Center
11:49AM 38.9958 -77.0900 224° Southwest 405 466 34,000  Level Washington Center
11:50AM 38.9111 -77.1842 221° Southwest 405 466 34,000  Level Washington Center
11:51AM 38.8264 -77.2783 221° Southwest 405 466 34,000  Level Washington Center
11:52AM 38.7397 -77.3722 220° Southwest 410 472 34,000  Level Washington Center
11:53AM 38.6550 -77.4658 221° Southwest 410 472 34,000  Level Washington Center
11:54AM 38.5614 -77.5669 220° Southwest 410 472 34,000  Level Washington Center
11:55AM 38.4767 -77.6575 220° Southwest 410 472 34,000  Level Washington Center
11:56AM 38.3936 -77.7508 221° Southwest 405 466 34,000  Level Washington Center
11:57AM 38.3086 -77.8408 220° Southwest 405 466 34,000  Level Washington Center
11:58AM 38.2256 -77.9308 220° Southwest 405 466 34,000  Level Washington Center
11:59AM 38.1403 -78.0206 220° Southwest 405 466 34,000  Level Washington Center
12:00PM 38.0592 -78.1103 221° Southwest 405 466 34,000  Level Washington Center
12:01PM 37.9803 -78.1894 218° Southwest 386 444 34,000  Level Washington Center
12:02PM 37.8931 -78.2731 217° Southwest 386 444 34,000  Level Washington Center
12:03PM 37.8078 -78.3542 217° Southwest 391 450 34,000  Level Washington Center
12:04PM 37.7203 -78.4350 216° Southwest 397 457 34,000  Level Washington Center
12:05PM 37.6328 -78.5183 217° Southwest 397 457 34,000  Level Washington Center
12:06PM 37.5539 -78.5939 217° Southwest 397 457 34,000  Level Washington Center
12:07PM 37.4683 -78.6742 217° Southwest 402 463 34,000 -639 Level Washington Center
12:08PM 37.3808 -78.7544 216° Southwest 402 463 32,700 -1,627 Descending Washington Center
12:09PM 37.2908 -78.8367 216° Southwest 402 463 30,800 -1,361 Descending Washington Center
12:10PM 37.1881 -78.9342 217° Southwest 409 471 30,000 -400 Descending Washington Center
12:11PM 37.0961 -79.0186 216° Southwest 414 476 30,000  Level Washington Center
12:12PM 37.0058 -79.1056 218° Southwest 414 476 30,000  Level Washington Center
12:13PM 36.9136 -79.1897 216° Southwest 419 482 30,000  Level Washington Center
12:14PM 36.8214 -79.2764 217° Southwest 419 482 30,000  Level Washington Center
12:16PM 36.6575 -79.4197 215° Southwest 423 487 30,000  Level Atlanta Center
12:17PM 36.5669 -79.5050 217° Southwest 423 487 30,000  Level Atlanta Center
12:18PM 36.4739 -79.5878 216° Southwest 423 487 30,000  Level Atlanta Center
12:19PM 36.3911 -79.6619 216° Southwest 418 481 30,000  Level Atlanta Center
12:20PM 36.3003 -79.7467 217° Southwest 418 481 30,000  Level Atlanta Center
12:21PM 36.2092 -79.8264 215° Southwest 423 487 30,000  Level Atlanta Center
12:22PM 36.1181 -79.9108 217° Southwest 412 474 30,000  Level Atlanta Center
12:23PM 36.0247 -79.9900 214° Southwest 412 474 30,000  Level Atlanta Center
12:24PM 35.9056 -80.0419 199° South 411 473 30,000  Level Atlanta Center
12:25PM 35.7989 -80.0983 203° Southwest 417 480 30,000  Level Atlanta Center
12:26PM 35.6900 -80.1497 201° Southwest 422 486 30,000  Level Atlanta Center
12:27PM 35.5917 -80.2056 205° Southwest 427 491 30,000  Level Atlanta Center
12:28PM 35.4828 -80.2592 202° Southwest 427 491 30,000  Level Atlanta Center
12:29PM 35.3717 -80.3125 201° Southwest 432 497 30,000  Level Atlanta Center
12:30PM 35.2628 -80.3708 204° Southwest 423 487 30,000  Level Atlanta Center
12:32PM 34.9925 -80.5006 201° Southwest 418 481 30,000  Level Jacksonville Center
12:33PM 34.8850 -80.5542 202° Southwest 423 487 30,000  Level Jacksonville Center
12:34PM 34.7794 -80.6050 202° Southwest 420 483 30,000  Level Jacksonville Center
12:35PM 34.6722 -80.6636 204° Southwest 415 478 30,000  Level Jacksonville Center
12:36PM 34.5542 -80.7219 202° Southwest 443 510 30,000  Level Jacksonville Center
12:37PM 34.4464 -80.7675 199° South 431 496 30,000  Level Jacksonville Center
12:38PM 34.3328 -80.8331 205° Southwest 434 499 30,000  Level Jacksonville Center
12:39PM 34.2333 -80.8758 200° South 428 493 30,000  Level Jacksonville Center
12:40PM 34.1194 -80.9311 202° Southwest 422 486 30,000  Level Jacksonville Center
12:41PM 34.0119 -80.9836 202° Southwest 427 491 30,000  Level Jacksonville Center
12:42PM 33.9269 -81.0256 202° Southwest 427 491 30,000  Level Jacksonville Center
12:43PM 33.8150 -81.0828 203° Southwest 433 498 30,000  Level Jacksonville Center
12:44PM 33.6844 -81.1428 201° Southwest 433 498 30,000  Level Jacksonville Center
12:45PM 33.5725 -81.1975 202° Southwest 433 498 30,000  Level Jacksonville Center
12:46PM 33.4647 -81.2494 202° Southwest 433 498 30,000  Level Jacksonville Center
12:47PM 33.3569 -81.3036 203° Southwest 433 498 30,000  Level Jacksonville Center
12:48PM 33.2489 -81.3550 202° Southwest 433 498 30,000  Level Jacksonville Center
12:49PM 33.1389 -81.4117 203° Southwest 433 498 30,000  Level Jacksonville Center
12:50PM 33.0372 -81.4603 202° Southwest 433 498 30,000  Level Jacksonville Center
12:51PM 32.9272 -81.5117 201° Southwest 433 498 30,000  Level Jacksonville Center
12:52PM 32.8172 -81.5653 202° Southwest 433 498 30,000  Level Jacksonville Center
12:53PM 32.7092 -81.6186 203° Southwest 433 498 30,000  Level Jacksonville Center
12:54PM 32.5928 -81.6769 203° Southwest 433 498 30,000  Level Jacksonville Center
12:55PM 32.4703 -81.7353 202° Southwest 433 498 30,000  Level Jacksonville Center
12:56PM 32.3683 -81.7833 202° Southwest 438 504 30,000  Level Jacksonville Center
12:57PM 32.2456 -81.8436 203° Southwest 440 506 30,000 -500 Level Jacksonville Center
12:58PM 32.1292 -81.8867 197° South 434 499 29,000 -1,000 Descending Jacksonville Center
12:59PM 32.0186 -81.9028 187° South 441 507 28,000 -500 Descending Jacksonville Center
01:00PM 31.8831 -81.9236 187° South 452 520 28,000  Level Jacksonville Center
01:01PM 31.7600 -81.9419 187° South 452 520 28,000  Level Jacksonville Center
01:02PM 31.6494 -81.9603 188° South 447 514 28,000  Level Jacksonville Center
01:03PM 31.5119 -81.9836 188° South 447 514 28,000  Level Jacksonville Center
01:04PM 31.3992 -82.0017 188° South 452 520 28,000  Level Jacksonville Center
01:05PM 31.2742 -82.0247 189° South 452 520 28,000  Level Jacksonville Center
01:06PM 31.1489 -82.0453 188° South 457 526 28,000  Level Jacksonville Center
01:07PM 31.0217 -82.0658 188° South 462 532 28,000  Level Jacksonville Center
01:08PM 30.8944 -82.0864 188° South 467 537 28,000  Level Jacksonville Center
01:09PM 30.7672 -82.1067 188° South 467 537 28,000  Level Jacksonville Center
01:10PM 30.6381 -82.1272 188° South 467 537 28,000  Level Jacksonville Center
01:11PM 30.5108 -82.1450 187° South 467 537 28,000  Level Jacksonville Center
01:12PM 30.3833 -82.1631 187° South 467 537 28,000 -250 Level Jacksonville Center
01:13PM 30.2561 -82.1831 188° South 462 532 27,500 -500 Descending Jacksonville Center
01:14PM 30.1311 -82.2008 187° South 468 539 27,000 -300 Descending Jacksonville Center
01:15PM 29.9850 -82.2308 190° South 468 539 26,900 -450 Descending Jacksonville Center
01:16PM 29.8600 -82.2508 188° South 468 539 26,100 -950 Descending Jacksonville Center
01:17PM 29.7367 -82.2683 187° South 462 532 25,000 -1,100 Descending Jacksonville Center
01:18PM 29.6114 -82.2619 177° South 456 525 23,900 -1,100 Descending Jacksonville Center
01:19PM 29.4925 -82.2436 172° South 451 519 22,800 -1,150 Descending Jacksonville Center
01:20PM 29.3753 -82.2228 171° South 439 505 21,600 -1,300 Descending Jacksonville Center
01:21PM 29.2606 -82.2069 173° South 428 493 20,200 -1,500 Descending Jacksonville Center
01:22PM 29.1478 -82.1936 174° South 423 487 18,600 -1,500 Descending Jacksonville Center
01:23PM 29.0392 -82.1753 172° South 412 474 17,200 -1,550 Descending Jacksonville Center
01:24PM 28.9367 -82.1547 170° South 399 459 15,500 -1,236 Descending Jacksonville Center
01:26PM 28.7167 -82.1333 175° South 363 418 13,100 -941 Descending Tampa TRACON
01:27PM 28.6000 -82.1000 166° South 354 407 12,300 -816 Descending Tampa TRACON
01:28PM 28.5000 -82.1000 180° South 357 411 11,400 -684 Descending Tampa TRACON
01:29PM 28.4333 -82.1167 192° South 359 413 11,000 -350 Descending Tampa TRACON
01:30PM 28.3167 -82.1500 194° South 351 404 10,700 -425 Descending Tampa TRACON
01:31PM 28.2167 -82.1833 196° South 347 399 10,100 -283 Descending Tampa TRACON
01:32PM 28.1167 -82.2000 188° South 349 402 10,100 -50 Level Tampa TRACON
01:33PM 28.0333 -82.2333 199° South 336 387 10,000 -579 Descending Tampa TRACON
01:34PM 27.9500 -82.2500 190° South 281 323 9,000 -1,350 Descending Tampa TRACON
01:35PM 27.8667 -82.2667 190° South 280 322 7,300 -1,368 Descending Tampa TRACON
01:36PM 27.8167 -82.2833 196° South 274 315 6,400 -684 Descending Tampa TRACON
01:37PM 27.7500 -82.3333 214° Southwest 272 313 6,000 -200 Descending Tampa TRACON
01:38PM 27.7000 -82.4000 230° Southwest 269 310 6,000 -100 Level Tampa TRACON
01:39PM 27.6500 -82.4500 222° Southwest 272 313 5,800 -1,000 Descending Tampa TRACON
01:40PM 27.5833 -82.5167 222° Southwest 267 307 3,900 -1,381 Descending Tampa TRACON
01:41PM 27.5333 -82.5667 222° Southwest 216 249 2,900 -1,000 Descending Tampa TRACON

Login

Don't have an account? Register now (free) for customized features, flight alerts, and more!